Time;durP1;ratioP1;P1;durP2;ratioP2;P2;SDS_P1;SDS_P2;PMS_P1;PMS_P2;Temp;Humidity;BMP_temperature;BMP_pressure;BME280_temperature;BME280_humidity;BME280_pressure;Samples;Min_cycle;Max_cycle;Signal;HPM_P1;HPM_P2
2023/07/19 00:01:17;;;;;;;3.77;1.73;;;19.30;99.90;;;;;;5036170;28;20501;-78
2023/07/19 00:03:44;;;;;;;12.93;2.20;;;19.30;99.90;;;;;;5036136;28;20453;-78
2023/07/19 00:06:11;;;;;;;3.50;2.00;;;19.30;99.90;;;;;;5036082;28;20454;-78
2023/07/19 00:08:38;;;;;;;3.50;1.83;;;19.30;99.90;;;;;;5035895;28;20454;-83
2023/07/19 00:11:06;;;;;;;2.07;1.80;;;19.30;99.90;;;;;;5036053;28;20489;-82
2023/07/19 00:13:33;;;;;;;8.83;1.53;;;19.30;99.90;;;;;;5036012;28;20454;-83
2023/07/19 00:15:59;;;;;;;3.50;2.17;;;19.30;99.90;;;;;;5036138;28;20443;-82
2023/07/19 00:18:26;;;;;;;2.43;1.53;;;19.40;99.90;;;;;;5035978;28;20465;-83
2023/07/19 00:20:53;;;;;;;2.40;1.80;;;19.40;99.90;;;;;;5035444;28;20986;-82
2023/07/19 00:23:20;;;;;;;1.67;1.50;;;19.50;99.90;;;;;;5036004;28;20461;-82
2023/07/19 00:25:46;;;;;;;3.33;1.57;;;19.60;99.90;;;;;;5035702;28;20488;-83
2023/07/19 00:28:15;;;;;;;5.13;2.70;;;19.50;99.90;;;;;;5035869;28;20474;-83
2023/07/19 00:30:42;;;;;;;5.73;2.03;;;19.60;99.90;;;;;;5035440;28;20470;-82
2023/07/19 00:33:08;;;;;;;3.53;1.70;;;19.60;99.90;;;;;;5035717;28;20493;-83
2023/07/19 00:35:40;;;;;;;3.03;1.97;;;19.60;99.90;;;;;;5035464;28;20462;-82
2023/07/19 00:38:07;;;;;;;2.37;2.00;;;19.50;99.90;;;;;;5035447;28;20446;-83
2023/07/19 00:40:34;;;;;;;4.20;2.20;;;19.60;99.90;;;;;;5036410;28;20473;-82
2023/07/19 00:43:01;;;;;;;1.57;1.20;;;19.50;99.90;;;;;;5035642;28;20450;-83
2023/07/19 00:45:29;;;;;;;3.30;2.07;;;19.50;99.90;;;;;;5035486;28;20454;-83
2023/07/19 00:47:57;;;;;;;2.03;1.70;;;19.50;99.90;;;;;;5035303;28;20512;-83
2023/07/19 00:50:24;;;;;;;5.83;2.27;;;19.40;99.90;;;;;;5035343;28;20475;-82
2023/07/19 00:52:52;;;;;;;2.83;1.73;;;19.40;99.90;;;;;;5035312;28;20482;-83
2023/07/19 00:55:20;;;;;;;4.87;2.37;;;19.40;99.90;;;;;;5035303;28;20451;-83
2023/07/19 00:57:46;;;;;;;2.20;1.70;;;19.40;99.90;;;;;;5035245;28;20454;-82
2023/07/19 01:00:14;;;;;;;3.00;1.80;;;19.40;99.90;;;;;;5035314;28;20481;-82
2023/07/19 01:02:44;;;;;;;3.53;1.37;;;19.40;99.90;;;;;;5035475;28;20454;-82
2023/07/19 01:05:11;;;;;;;1.97;1.63;;;19.40;99.90;;;;;;5034943;28;20426;-82
2023/07/19 01:07:38;;;;;;;2.67;1.77;;;19.40;99.90;;;;;;5035111;28;20450;-82
2023/07/19 01:10:07;;;;;;;2.43;2.17;;;19.40;99.90;;;;;;5035000;28;20466;-83
2023/07/19 01:12:33;;;;;;;3.60;1.33;;;19.40;99.90;;;;;;5034588;28;20486;-82
2023/07/19 01:15:00;;;;;;;4.53;1.97;;;19.40;99.90;;;;;;5035003;28;20431;-82
2023/07/19 01:17:27;;;;;;;4.20;2.80;;;19.40;99.90;;;;;;5034594;28;20501;-83
2023/07/19 01:19:55;;;;;;;4.00;2.40;;;19.40;99.90;;;;;;5034653;28;20446;-82
2023/07/19 01:22:22;;;;;;;4.60;2.30;;;19.40;99.90;;;;;;5034766;28;20443;-82
2023/07/19 01:24:50;;;;;;;3.73;1.60;;;19.40;99.90;;;;;;5034290;28;20459;-82
2023/07/19 01:27:17;;;;;;;2.93;2.20;;;19.30;99.90;;;;;;5034759;28;20434;-83
2023/07/19 01:29:44;;;;;;;2.70;2.20;;;19.30;99.90;;;;;;5034551;28;20458;-82
2023/07/19 01:32:10;;;;;;;2.30;2.03;;;19.30;99.90;;;;;;5034544;28;20486;-82
2023/07/19 01:34:37;;;;;;;8.93;2.20;;;19.20;99.90;;;;;;5034502;28;20984;-82
2023/07/19 01:37:04;;;;;;;4.20;2.10;;;19.10;99.90;;;;;;5034468;28;20458;-82
2023/07/19 01:39:31;;;;;;;2.13;1.80;;;19.10;99.90;;;;;;5034238;28;20454;-82
2023/07/19 01:41:59;;;;;;;2.33;1.67;;;19.00;99.90;;;;;;5033678;28;20470;-82
2023/07/19 01:44:27;;;;;;;4.23;2.13;;;19.00;99.90;;;;;;5034358;28;20446;-82
2023/07/19 01:46:54;;;;;;;7.00;2.10;;;19.00;99.90;;;;;;5034328;28;20469;-82
2023/07/19 01:49:21;;;;;;;5.50;2.00;;;18.90;99.90;;;;;;5033988;28;20951;-82
2023/07/19 01:51:48;;;;;;;1.67;1.40;;;18.80;99.90;;;;;;5033959;28;20836;-82
2023/07/19 01:54:15;;;;;;;1.90;1.80;;;18.80;99.90;;;;;;5033933;28;20509;-82
2023/07/19 01:56:41;;;;;;;4.70;2.27;;;18.80;99.90;;;;;;5034158;28;20443;-82
2023/07/19 01:59:09;;;;;;;3.60;2.40;;;18.80;99.90;;;;;;5033882;28;20884;-82
2023/07/19 02:01:36;;;;;;;1.50;1.30;;;18.70;99.90;;;;;;5033918;28;20466;-82
2023/07/19 02:04:03;;;;;;;3.67;2.20;;;18.70;99.90;;;;;;5033780;28;20435;-82
2023/07/19 02:06:30;;;;;;;2.27;2.07;;;18.60;99.90;;;;;;5034131;28;20453;-82
2023/07/19 02:08:56;;;;;;;2.30;1.60;;;18.60;99.90;;;;;;5033902;28;20456;-83
2023/07/19 02:11:23;;;;;;;3.93;1.43;;;18.60;99.90;;;;;;5033522;28;20466;-82
2023/07/19 02:13:50;;;;;;;2.57;1.80;;;18.70;99.90;;;;;;5033540;28;20817;-82
2023/07/19 02:16:18;;;;;;;4.27;1.63;;;18.60;99.90;;;;;;5033716;28;20454;-82
2023/07/19 02:18:45;;;;;;;1.67;1.57;;;18.60;99.90;;;;;;5033710;28;20462;-82
2023/07/19 02:21:11;;;;;;;4.13;2.07;;;18.60;99.90;;;;;;5033594;28;20463;-83
2023/07/19 02:23:38;;;;;;;4.37;2.30;;;18.60;99.90;;;;;;5033360;28;20443;-83
2023/07/19 02:26:05;;;;;;;2.83;1.87;;;18.60;99.90;;;;;;5033320;28;20489;-82
2023/07/19 02:28:32;;;;;;;1.63;1.50;;;18.50;99.90;;;;;;5033626;28;20463;-82
2023/07/19 02:30:58;;;;;;;2.00;1.67;;;18.50;99.90;;;;;;5033204;28;21001;-82
2023/07/19 02:33:27;;;;;;;2.10;1.60;;;18.50;99.90;;;;;;5033247;28;20478;-82
2023/07/19 02:35:54;;;;;;;2.70;2.50;;;18.50;99.90;;;;;;5033502;28;20446;-82
2023/07/19 02:38:21;;;;;;;2.87;1.07;;;18.40;99.90;;;;;;5033528;28;20427;-83
2023/07/19 02:40:48;;;;;;;3.27;1.77;;;18.40;99.90;;;;;;5033408;28;20521;-82
2023/07/19 02:43:15;;;;;;;2.80;1.67;;;18.30;99.90;;;;;;5033667;28;20446;-82
2023/07/19 02:45:42;;;;;;;4.20;2.20;;;18.30;99.90;;;;;;5033235;28;20931;-82
2023/07/19 02:48:09;;;;;;;9.00;2.20;;;18.30;99.90;;;;;;5033372;28;20447;-82
2023/07/19 02:50:38;;;;;;;2.07;1.87;;;18.20;99.90;;;;;;5033316;28;20485;-83
2023/07/19 02:53:05;;;;;;;5.43;2.50;;;18.30;99.90;;;;;;5033176;28;20839;-82
2023/07/19 02:55:31;;;;;;;3.63;2.30;;;18.20;99.90;;;;;;5033288;28;20457;-83
2023/07/19 02:57:59;;;;;;;3.97;1.73;;;18.20;99.90;;;;;;5032958;28;20825;-82
2023/07/19 03:00:26;;;;;;;5.80;2.10;;;18.20;99.90;;;;;;5032884;28;21025;-82
2023/07/19 03:02:55;;;;;;;3.00;2.30;;;18.10;99.90;;;;;;5033025;28;20485;-82
2023/07/19 03:05:22;;;;;;;1.77;1.67;;;18.10;99.90;;;;;;5033182;28;20482;-82
2023/07/19 03:07:51;;;;;;;5.37;1.60;;;18.10;99.90;;;;;;5033207;28;20497;-82
2023/07/19 03:10:17;;;;;;;2.03;1.63;;;18.10;99.90;;;;;;5032824;28;20481;-82
2023/07/19 03:12:44;;;;;;;8.37;2.30;;;18.10;99.90;;;;;;5032778;28;20840;-82
2023/07/19 03:15:11;;;;;;;6.60;2.70;;;18.00;99.90;;;;;;5032803;28;20935;-83
2023/07/19 03:17:39;;;;;;;4.03;2.57;;;18.00;99.90;;;;;;5033036;28;20461;-82
2023/07/19 03:20:07;;;;;;;3.67;2.67;;;18.00;99.90;;;;;;5032812;28;20858;-82
2023/07/19 03:22:34;;;;;;;5.27;2.10;;;18.00;99.90;;;;;;5033000;28;20546;-82
2023/07/19 03:25:02;;;;;;;3.17;1.90;;;18.00;99.90;;;;;;5032855;28;20486;-82
2023/07/19 03:27:29;;;;;;;4.63;1.90;;;18.00;99.90;;;;;;5032990;28;20456;-82
2023/07/19 03:29:56;;;;;;;3.00;2.07;;;18.00;99.90;;;;;;5033118;28;20447;-82
2023/07/19 03:32:22;;;;;;;3.90;1.37;;;17.90;99.90;;;;;;5032621;28;20840;-82
2023/07/19 03:34:49;;;;;;;2.43;2.00;;;17.90;99.90;;;;;;5033117;28;20517;-82
2023/07/19 03:37:16;;;;;;;3.00;2.30;;;17.90;99.90;;;;;;5032845;28;20454;-83
2023/07/19 03:39:43;;;;;;;9.90;2.23;;;17.90;99.90;;;;;;5032852;28;20455;-82
2023/07/19 03:42:11;;;;;;;3.03;1.80;;;17.90;99.90;;;;;;5032811;28;20788;-82
2023/07/19 03:44:38;;;;;;;1.93;1.40;;;17.90;99.90;;;;;;5032813;28;20780;-82
2023/07/19 03:47:05;;;;;;;5.10;1.90;;;17.90;99.90;;;;;;5033045;28;20454;-82
2023/07/19 03:49:32;;;;;;;3.67;2.10;;;17.90;99.90;;;;;;5032730;28;20449;-82
2023/07/19 03:51:58;;;;;;;4.07;2.00;;;17.90;99.90;;;;;;5032619;28;20525;-83
2023/07/19 03:54:25;;;;;;;4.80;2.50;;;17.90;99.90;;;;;;5032535;28;20431;-82
2023/07/19 03:56:52;;;;;;;3.97;1.80;;;18.00;99.90;;;;;;5032457;28;20439;-82
2023/07/19 03:59:20;;;;;;;1.37;1.20;;;18.00;99.90;;;;;;5032407;28;20807;-82
2023/07/19 04:01:46;;;;;;;5.73;1.90;;;18.00;99.90;;;;;;5032321;28;21001;-82
2023/07/19 04:04:13;;;;;;;10.40;2.13;;;18.00;99.90;;;;;;5033505;28;20521;-82
2023/07/19 04:06:40;;;;;;;4.10;2.00;;;17.90;99.90;;;;;;5036287;28;20442;-82
2023/07/19 04:09:07;;;;;;;6.53;2.30;;;17.90;99.90;;;;;;5035867;28;20450;-82
2023/07/19 04:11:34;;;;;;;1.87;1.40;;;17.90;99.90;;;;;;5036277;28;20470;-82
2023/07/19 04:14:01;;;;;;;4.00;2.20;;;17.90;99.90;;;;;;5036045;28;20540;-82
2023/07/19 04:16:29;;;;;;;3.23;1.70;;;17.90;99.90;;;;;;5036051;28;20465;-82
2023/07/19 04:18:56;;;;;;;3.33;2.10;;;17.90;99.90;;;;;;5035993;28;20451;-82
2023/07/19 04:21:22;;;;;;;3.47;2.53;;;17.90;99.90;;;;;;5036171;28;20557;-82
2023/07/19 04:23:49;;;;;;;2.63;1.33;;;18.00;99.90;;;;;;5035937;28;20443;-82
2023/07/19 04:26:16;;;;;;;3.07;1.93;;;18.00;99.90;;;;;;5035623;28;20486;-82
2023/07/19 04:28:42;;;;;;;2.10;1.67;;;18.00;99.90;;;;;;5035818;28;20447;-82
2023/07/19 04:31:09;;;;;;;2.37;1.60;;;18.10;99.90;;;;;;5035455;28;20550;-82
2023/07/19 04:33:37;;;;;;;2.80;1.43;;;18.10;99.90;;;;;;5035668;28;20489;-82
2023/07/19 04:36:12;;;;;;;2.80;1.90;;;18.10;99.90;;;;;;5035737;28;20442;-82
2023/07/19 04:38:40;;;;;;;7.60;2.50;;;18.10;99.90;;;;;;5035461;28;20485;-82
2023/07/19 04:41:06;;;;;;;2.10;1.90;;;18.20;99.90;;;;;;5035539;28;20469;-82
2023/07/19 04:43:33;;;;;;;2.40;2.20;;;18.20;99.90;;;;;;5035234;28;20450;-82
2023/07/19 04:46:00;;;;;;;2.57;1.80;;;18.30;99.90;;;;;;5035510;28;20454;-82
2023/07/19 04:48:27;;;;;;;9.60;2.00;;;18.30;99.90;;;;;;5035449;28;20457;-82
2023/07/19 04:50:55;;;;;;;2.20;1.70;;;18.30;99.90;;;;;;5035288;28;20471;-82
2023/07/19 04:53:22;;;;;;;3.13;1.80;;;18.40;99.90;;;;;;5035029;28;21017;-82
2023/07/19 04:55:51;;;;;;;2.10;1.50;;;18.40;99.90;;;;;;5035051;28;20450;-82
2023/07/19 04:58:17;;;;;;;5.03;1.87;;;18.40;99.90;;;;;;5034996;28;20953;-82
2023/07/19 05:00:44;;;;;;;4.17;2.33;;;18.50;99.90;;;;;;5034922;28;21009;-82
2023/07/19 05:03:12;;;;;;;2.10;1.90;;;18.50;99.90;;;;;;5034866;28;20439;-82
2023/07/19 05:05:39;;;;;;;3.70;2.67;;;18.60;99.90;;;;;;5035716;28;20843;-82
2023/07/19 05:08:07;;;;;;;4.80;2.33;;;18.60;99.90;;;;;;5035155;28;20508;-82
2023/07/19 05:10:36;;;;;;;4.10;2.50;;;18.60;99.90;;;;;;5034633;28;20990;-82
2023/07/19 05:13:03;;;;;;;2.20;2.00;;;18.60;99.90;;;;;;5034677;28;20483;-82
2023/07/19 05:15:30;;;;;;;4.40;2.23;;;18.70;99.90;;;;;;5034123;28;20461;-82
2023/07/19 05:17:56;;;;;;;2.23;1.93;;;18.70;99.90;;;;;;5034665;28;20447;-82
2023/07/19 05:20:24;;;;;;;4.93;2.50;;;18.70;99.90;;;;;;5034791;28;20534;-82
2023/07/19 05:22:51;;;;;;;1.63;1.47;;;18.80;99.90;;;;;;5034869;28;20450;-82
2023/07/19 05:25:19;;;;;;;4.00;1.90;;;18.80;99.90;;;;;;5034607;28;20494;-82
2023/07/19 05:27:46;;;;;;;2.20;1.77;;;18.90;99.90;;;;;;5034455;28;20439;-82
2023/07/19 05:30:13;;;;;;;2.50;1.97;;;18.90;99.90;;;;;;5034618;28;20478;-82
2023/07/19 05:32:40;;;;;;;3.90;1.93;;;19.00;99.90;;;;;;5034527;28;20461;-82
2023/07/19 05:35:07;;;;;;;3.00;1.77;;;19.00;99.90;;;;;;5034364;28;20439;-82
2023/07/19 05:37:34;;;;;;;1.60;1.50;;;19.20;99.90;;;;;;5034556;28;20541;-82
2023/07/19 05:40:01;;;;;;;1.73;1.60;;;19.20;99.90;;;;;;5034450;28;20478;-83
2023/07/19 05:42:29;;;;;;;6.00;1.67;;;19.30;99.90;;;;;;5034661;28;20461;-82
2023/07/19 05:44:56;;;;;;;2.20;1.60;;;19.40;99.90;;;;;;5034436;28;20447;-83
2023/07/19 05:47:23;;;;;;;2.73;1.87;;;19.50;99.90;;;;;;5034378;28;20458;-82
2023/07/19 05:49:50;;;;;;;2.10;1.23;;;19.60;99.90;;;;;;5034022;28;20435;-82
2023/07/19 05:52:16;;;;;;;4.57;1.90;;;19.70;99.90;;;;;;5034308;28;20446;-82
2023/07/19 05:54:43;;;;;;;3.03;2.10;;;19.80;99.90;;;;;;5034149;28;20490;-82
2023/07/19 05:57:10;;;;;;;2.60;1.60;;;20.00;99.90;;;;;;5034201;28;20537;-82
2023/07/19 05:59:38;;;;;;;3.37;1.67;;;20.10;99.90;;;;;;5033813;28;20455;-82
2023/07/19 06:02:05;;;;;;;1.87;1.10;;;20.20;99.90;;;;;;5034076;28;20461;-82
2023/07/19 06:04:32;;;;;;;1.40;1.07;;;20.30;99.90;;;;;;5034069;28;20852;-83
2023/07/19 06:06:59;;;;;;;2.47;1.17;;;20.30;99.90;;;;;;5033667;28;20508;-83
2023/07/19 06:09:26;;;;;;;2.53;1.60;;;20.50;99.90;;;;;;5034005;28;20442;-82
2023/07/19 06:11:56;;;;;;;3.10;1.53;;;20.60;99.90;;;;;;5033876;28;20474;-82
2023/07/19 06:14:23;;;;;;;4.73;1.40;;;20.70;99.90;;;;;;5033846;28;20477;-82
2023/07/19 06:16:51;;;;;;;4.30;1.70;;;20.90;99.90;;;;;;5033837;28;20449;-83
2023/07/19 06:19:19;;;;;;;2.27;1.67;;;21.10;99.90;;;;;;5033693;28;20446;-82
2023/07/19 06:21:46;;;;;;;4.00;1.43;;;21.20;99.90;;;;;;5033645;28;20484;-83
2023/07/19 06:24:13;;;;;;;2.43;1.50;;;21.30;99.90;;;;;;5033479;28;20972;-83
2023/07/19 06:26:39;;;;;;;4.77;1.33;;;21.50;99.90;;;;;;5033056;28;20462;-84
2023/07/19 06:29:06;;;;;;;3.23;1.77;;;21.60;99.90;;;;;;5033669;28;20454;-83
2023/07/19 06:31:33;;;;;;;1.90;1.53;;;21.70;99.90;;;;;;5033810;28;20455;-83
2023/07/19 06:34:01;;;;;;;1.40;1.30;;;21.90;99.90;;;;;;5033575;28;20473;-83
2023/07/19 06:36:28;;;;;;;1.97;1.40;;;21.90;99.90;;;;;;5033802;28;20442;-83
2023/07/19 06:38:55;;;;;;;1.30;1.20;;;22.00;99.90;;;;;;5033646;28;20422;-83
2023/07/19 06:41:21;;;;;;;1.70;1.30;;;22.20;99.90;;;;;;5033152;28;20986;-79
2023/07/19 06:43:48;;;;;;;1.40;1.30;;;22.40;99.90;;;;;;5033473;28;20450;-78
2023/07/19 06:46:15;;;;;;;1.70;0.80;;;22.60;99.90;;;;;;5033467;28;20774;-78
2023/07/19 06:48:43;;;;;;;5.43;1.30;;;22.80;99.90;;;;;;5034318;28;20533;-78
2023/07/19 06:51:11;;;;;;;1.20;1.10;;;23.00;99.90;;;;;;5033043;28;21012;-78
2023/07/19 06:53:38;;;;;;;3.00;1.60;;;23.20;99.90;;;;;;5033289;28;20223;-83
2023/07/19 06:56:05;;;;;;;0.82;0.80;;;23.50;99.90;;;;;;5033375;28;20446;-79
2023/07/19 06:58:32;;;;;;;1.77;1.67;;;23.60;99.90;;;;;;5033238;28;20199;-79
2023/07/19 07:00:58;;;;;;;2.17;1.33;;;23.70;99.90;;;;;;5032963;28;20211;-79
2023/07/19 07:03:26;;;;;;;1.75;1.40;;;23.80;99.90;;;;;;5033244;28;20199;-79
2023/07/19 07:05:53;;;;;;;1.77;1.15;;;24.10;99.90;;;;;;5033226;28;20299;-79
2023/07/19 07:08:21;;;;;;;3.38;1.10;;;24.10;99.90;;;;;;5033244;28;20207;-81
2023/07/19 07:10:48;;;;;;;1.52;1.25;;;24.30;99.90;;;;;;5032995;28;20730;-81
2023/07/19 07:13:14;;;;;;;3.70;1.10;;;24.40;99.90;;;;;;5033364;28;20207;-81
2023/07/19 07:15:41;;;;;;;1.27;0.95;;;24.60;99.90;;;;;;5033402;28;20207;-81
2023/07/19 07:18:08;;;;;;;6.55;0.98;;;24.60;99.90;;;;;;5033098;28;20207;-82
2023/07/19 07:20:35;;;;;;;1.20;1.02;;;24.70;99.90;;;;;;5033032;28;20226;-82
2023/07/19 07:23:02;;;;;;;1.35;0.82;;;24.70;99.90;;;;;;5033084;28;20203;-82
2023/07/19 07:25:30;;;;;;;1.63;1.10;;;24.80;99.90;;;;;;5032746;28;20239;-82
2023/07/19 07:27:59;;;;;;;1.20;0.63;;;24.90;99.90;;;;;;5032759;28;20254;-82
2023/07/19 07:30:25;;;;;;;0.73;0.73;;;24.90;99.90;;;;;;5032950;28;20234;-82
2023/07/19 07:32:52;;;;;;;3.33;0.77;;;25.10;99.90;;;;;;5032659;28;20214;-82
2023/07/19 07:35:19;;;;;;;0.95;0.90;;;25.20;99.90;;;;;;5032928;28;20267;-82
2023/07/19 07:37:46;;;;;;;1.00;1.00;;;25.30;99.90;;;;;;5032997;28;20205;-81
2023/07/19 07:40:13;;;;;;;1.23;0.88;;;25.40;99.90;;;;;;5035347;28;20230;-82
2023/07/19 07:42:41;;;;;;;0.80;0.80;;;25.30;99.90;;;;;;5036547;28;20690;-81
2023/07/19 07:45:09;;;;;;;1.02;0.85;;;25.30;99.90;;;;;;5036372;28;20211;-83
2023/07/19 07:47:36;;;;;;;0.88;0.77;;;25.40;99.90;;;;;;5037006;28;20318;-84
2023/07/19 07:50:04;;;;;;;0.60;0.60;;;25.50;99.90;;;;;;5036926;28;20223;-84
2023/07/19 07:52:31;;;;;;;0.80;0.68;;;25.60;99.90;;;;;;5036676;28;20203;-84
2023/07/19 07:54:57;;;;;;;1.98;0.75;;;25.70;99.90;;;;;;5036489;28;20223;-84
2023/07/19 07:57:25;;;;;;;0.77;0.77;;;25.90;99.90;;;;;;5037013;28;20207;-84
2023/07/19 07:59:53;;;;;;;0.70;0.65;;;26.00;99.90;;;;;;5036715;28;20195;-83
2023/07/19 08:02:20;;;;;;;2.15;0.73;;;26.10;99.90;;;;;;5037992;28;20215;-84
2023/07/19 08:04:47;;;;;;;0.80;0.70;;;26.30;99.90;;;;;;5038738;28;20212;-84
2023/07/19 08:07:14;;;;;;;1.35;0.80;;;26.30;99.90;;;;;;5038606;28;20196;-84
2023/07/19 08:09:41;;;;;;;0.93;0.63;;;26.50;99.90;;;;;;5038530;28;20286;-85
2023/07/19 08:12:08;;;;;;;4.22;0.80;;;26.60;99.90;;;;;;5037638;28;20202;-84
2023/07/19 08:14:37;;;;;;;0.60;0.60;;;26.70;99.90;;;;;;5038210;28;20226;-84
2023/07/19 08:17:05;;;;;;;1.40;0.73;;;26.90;99.90;;;;;;5037335;28;20200;-84
2023/07/19 08:19:32;;;;;;;0.82;0.70;;;27.00;99.90;;;;;;5037374;28;20203;-84
2023/07/19 08:22:03;;;;;;;0.80;0.80;;;27.00;99.90;;;;;;5037327;28;20230;-84
2023/07/19 08:24:31;;;;;;;0.50;0.50;;;27.10;99.90;;;;;;5036965;28;20639;-84
2023/07/19 08:26:57;;;;;;;0.50;0.50;;;27.20;98.90;;;;;;5037057;28;20305;-84
2023/07/19 08:29:24;;;;;;;1.05;0.80;;;27.30;99.10;;;;;;5037500;28;20192;-85
2023/07/19 08:31:51;;;;;;;2.25;0.60;;;27.40;98.30;;;;;;5037552;28;20216;-84
2023/07/19 08:34:20;;;;;;;0.50;0.50;;;27.50;97.10;;;;;;5037434;28;20218;-84
2023/07/19 08:36:47;;;;;;;1.52;0.70;;;27.50;97.40;;;;;;5036503;28;20289;-84
2023/07/19 08:39:14;;;;;;;0.93;0.93;;;27.70;97.00;;;;;;5036808;28;20207;-85
2023/07/19 08:41:41;;;;;;;0.93;0.60;;;27.70;95.70;;;;;;5037643;28;20710;-84
2023/07/19 08:44:10;;;;;;;6.07;1.25;;;27.80;95.60;;;;;;5037233;28;20207;-85
2023/07/19 08:46:37;;;;;;;0.60;0.50;;;28.00;95.60;;;;;;5036224;28;20196;-84
2023/07/19 08:49:04;;;;;;;0.60;0.60;;;28.00;93.60;;;;;;5035392;28;20676;-83
2023/07/19 08:51:33;;;;;;;0.60;0.60;;;27.90;92.70;;;;;;5035760;28;20318;-83
2023/07/19 08:54:00;;;;;;;0.60;0.60;;;27.70;92.00;;;;;;5035579;28;20227;-79
2023/07/19 08:56:27;;;;;;;0.50;0.50;;;27.70;91.30;;;;;;5035420;28;20203;-78
2023/07/19 08:58:54;;;;;;;0.70;0.50;;;27.60;91.60;;;;;;5035216;28;20207;-79
2023/07/19 09:01:21;;;;;;;1.50;0.70;;;27.50;91.30;;;;;;5035262;28;20223;-79
2023/07/19 09:03:47;;;;;;;0.57;0.50;;;27.60;90.60;;;;;;5035266;28;20208;-79
2023/07/19 09:06:23;;;;;;;0.77;0.40;;;27.80;90.90;;;;;;5035195;28;20203;-79
2023/07/19 09:08:52;;;;;;;0.60;0.50;;;27.80;90.70;;;;;;5034926;28;20266;-78
2023/07/19 09:11:21;;;;;;;1.23;0.70;;;27.80;88.60;;;;;;5034965;28;20227;-79
2023/07/19 09:13:53;;;;;;;4.32;0.60;;;27.90;89.80;;;;;;5035034;28;20257;-78
2023/07/19 09:16:26;;;;;;;0.60;0.60;;;28.20;90.50;;;;;;5034749;28;20199;-79
2023/07/19 09:18:53;;;;;;;0.68;0.60;;;28.40;89.20;;;;;;5035007;28;20240;-79
2023/07/19 09:21:31;;;;;;;1.45;0.60;;;28.50;87.50;;;;;;5034606;28;20218;-78
2023/07/19 09:23:59;;;;;;;0.80;0.80;;;28.70;85.50;;;;;;5034908;28;20192;-79
2023/07/19 09:26:26;;;;;;;0.60;0.60;;;28.80;84.80;;;;;;5034409;28;20236;-79
2023/07/19 09:28:53;;;;;;;0.65;0.65;;;28.80;83.00;;;;;;5034774;28;20203;-79
2023/07/19 09:31:19;;;;;;;2.92;0.90;;;28.70;82.80;;;;;;5034550;28;20221;-78
2023/07/19 09:33:46;;;;;;;2.33;0.70;;;28.70;81.10;;;;;;5034581;28;20209;-79
2023/07/19 09:36:18;;;;;;;0.73;0.63;;;28.70;80.60;;;;;;5034394;28;20561;-79
2023/07/19 09:38:45;;;;;;;0.85;0.70;;;28.80;84.40;;;;;;5034664;28;20216;-79
2023/07/19 09:41:14;;;;;;;0.60;0.60;;;28.80;84.60;;;;;;5034739;28;20221;-81
2023/07/19 09:43:42;;;;;;;0.60;0.60;;;28.70;82.00;;;;;;5034562;28;20205;-81
2023/07/19 09:46:10;;;;;;;0.60;0.60;;;28.60;83.10;;;;;;5034487;28;20247;-82
2023/07/19 09:48:37;;;;;;;0.80;0.70;;;28.70;84.10;;;;;;5034425;28;20196;-81
2023/07/19 09:51:04;;;;;;;1.85;0.65;;;28.90;82.10;;;;;;5034274;28;20219;-81
2023/07/19 09:53:33;;;;;;;1.60;0.95;;;28.90;84.00;;;;;;5033959;28;20690;-81
2023/07/19 09:56:01;;;;;;;0.68;0.63;;;29.00;81.00;;;;;;5034416;28;20227;-81
2023/07/19 09:58:30;;;;;;;6.63;1.60;;;29.20;79.80;;;;;;5033964;28;20214;-81
2023/07/19 10:00:58;;;;;;;0.98;0.68;;;29.20;79.90;;;;;;5033835;28;20713;-82
2023/07/19 10:03:25;;;;;;;0.70;0.70;;;29.30;80.80;;;;;;5033609;28;20211;-81
2023/07/19 10:05:56;;;;;;;0.70;0.60;;;29.20;77.00;;;;;;5033787;28;20691;-81
2023/07/19 10:08:23;;;;;;;1.70;1.08;;;29.10;78.80;;;;;;5033770;28;20204;-80
2023/07/19 10:10:57;;;;;;;1.13;0.80;;;29.00;77.30;;;;;;5034156;28;20225;-80
2023/07/19 10:13:30;;;;;;;1.20;0.68;;;29.00;78.00;;;;;;5033963;28;20196;-81
2023/07/19 10:15:57;;;;;;;1.05;0.82;;;29.00;79.50;;;;;;5033926;28;20209;-81
2023/07/19 10:18:24;;;;;;;1.00;0.70;;;29.10;78.60;;;;;;5033505;28;20569;-80
2023/07/19 10:21:01;;;;;;;0.75;0.70;;;29.00;79.00;;;;;;5033586;28;20216;-82
2023/07/19 10:23:30;;;;;;;0.80;0.68;;;29.00;77.50;;;;;;5034209;28;20203;-81
2023/07/19 10:25:57;;;;;;;0.98;0.70;;;28.90;76.30;;;;;;5033594;28;20315;-81
2023/07/19 10:28:30;;;;;;;1.25;0.80;;;29.10;76.50;;;;;;5033853;28;20209;-82
2023/07/19 10:30:58;;;;;;;3.80;0.73;;;29.10;79.40;;;;;;5034241;28;20235;-80
2023/07/19 10:33:26;;;;;;;0.80;0.80;;;29.10;79.00;;;;;;5033832;28;20243;-82
2023/07/19 10:35:54;;;;;;;1.90;1.00;;;29.30;79.50;;;;;;5033165;28;20699;-81
2023/07/19 10:38:23;;;;;;;1.35;0.60;;;29.40;77.80;;;;;;5033565;28;20218;-83
2023/07/19 10:40:55;;;;;;;0.70;0.70;;;29.30;75.60;;;;;;5033466;28;20234;-81
2023/07/19 10:43:22;;;;;;;0.90;0.70;;;29.10;76.80;;;;;;5033923;28;20194;-81
2023/07/19 10:45:51;;;;;;;0.82;0.70;;;29.10;76.70;;;;;;5033448;28;20206;-82
2023/07/19 10:48:18;;;;;;;0.82;0.82;;;29.10;74.60;;;;;;5033085;28;20209;-81
2023/07/19 10:50:46;;;;;;;1.27;0.65;;;28.80;73.80;;;;;;5033402;28;20225;-81
2023/07/19 10:53:14;;;;;;;1.83;1.00;;;28.80;75.60;;;;;;5033289;28;20209;-80
2023/07/19 10:55:41;;;;;;;0.65;0.65;;;28.60;77.70;;;;;;5033243;28;20234;-80
2023/07/19 10:58:08;;;;;;;1.13;0.60;;;28.50;77.00;;;;;;5033300;28;20210;-80
2023/07/19 11:00:37;;;;;;;0.77;0.73;;;28.50;77.40;;;;;;5033245;28;20313;-80
2023/07/19 11:03:07;;;;;;;0.98;0.63;;;28.40;77.00;;;;;;5033204;28;20294;-80
2023/07/19 11:05:39;;;;;;;0.52;0.52;;;28.50;80.40;;;;;;5033290;28;20201;-82
2023/07/19 11:08:05;;;;;;;0.70;0.70;;;28.60;78.00;;;;;;5033055;28;20706;-82
2023/07/19 11:10:32;;;;;;;1.52;0.73;;;28.50;77.80;;;;;;5033111;28;20226;-82
2023/07/19 11:12:59;;;;;;;2.15;1.02;;;28.50;82.20;;;;;;5033434;28;20215;-82
2023/07/19 11:15:27;;;;;;;2.45;1.00;;;28.60;81.60;;;;;;5036114;28;20225;-83
2023/07/19 11:17:57;;;;;;;1.13;1.02;;;29.10;80.10;;;;;;5036968;28;20737;-82
2023/07/19 11:20:31;;;;;;;5.47;1.30;;;29.40;79.00;;;;;;5037209;28;20221;-82
2023/07/19 11:23:06;;;;;;;1.45;0.90;;;29.40;77.10;;;;;;5036922;28;20634;-82
2023/07/19 11:25:33;;;;;;;3.17;1.02;;;29.30;77.60;;;;;;5036859;28;20274;-82
2023/07/19 11:27:59;;;;;;;0.80;0.80;;;29.30;76.60;;;;;;5036872;28;20681;-83
2023/07/19 11:30:36;;;;;;;2.35;1.50;;;29.20;75.00;;;;;;5037064;28;20222;-79
2023/07/19 11:33:04;;;;;;;1.08;0.98;;;29.30;76.40;;;;;;5036927;28;20191;-79
2023/07/19 11:35:33;;;;;;;0.70;0.70;;;29.40;79.10;;;;;;5036842;28;20238;-79
2023/07/19 11:38:00;;;;;;;3.47;0.90;;;29.60;76.50;;;;;;5036536;28;20211;-79
2023/07/19 11:40:27;;;;;;;3.38;1.13;;;29.40;72.10;;;;;;5037057;28;20222;-79
2023/07/19 11:42:54;;;;;;;1.80;1.35;;;29.50;75.60;;;;;;5036367;28;20681;-79
2023/07/19 11:45:23;;;;;;;1.20;0.95;;;29.60;77.60;;;;;;5036745;28;20201;-79
2023/07/19 11:47:51;;;;;;;2.10;0.80;;;29.60;76.10;;;;;;5036698;28;20209;-79
2023/07/19 11:50:20;;;;;;;1.33;1.23;;;29.50;75.90;;;;;;5036779;28;20230;-79
2023/07/19 11:52:51;;;;;;;1.30;0.95;;;29.40;74.50;;;;;;5036489;28;20266;-79
2023/07/19 11:55:19;;;;;;;1.17;0.90;;;29.10;74.30;;;;;;5036501;28;20305;-79
2023/07/19 11:57:49;;;;;;;1.00;0.85;;;28.90;74.10;;;;;;5036460;28;20202;-79
2023/07/19 12:00:17;;;;;;;2.10;1.00;;;28.70;74.00;;;;;;5036774;28;20232;-79
2023/07/19 12:02:47;;;;;;;1.10;1.00;;;28.50;75.40;;;;;;5036389;28;20208;-79
2023/07/19 12:05:16;;;;;;;1.10;0.90;;;28.30;74.60;;;;;;5036147;28;20185;-79
2023/07/19 12:07:43;;;;;;;0.70;0.70;;;28.20;76.20;;;;;;5036053;28;20196;-79
2023/07/19 12:10:12;;;;;;;1.02;0.88;;;28.30;76.50;;;;;;5035968;28;20220;-78
2023/07/19 12:12:40;;;;;;;1.15;0.82;;;28.50;77.00;;;;;;5036396;28;20294;-84
2023/07/19 12:15:09;;;;;;;1.42;1.10;;;28.50;76.00;;;;;;5036010;28;20216;-84
2023/07/19 12:17:36;;;;;;;0.80;0.80;;;28.30;76.00;;;;;;5036020;28;20684;-84
2023/07/19 12:20:05;;;;;;;1.02;0.93;;;28.30;77.90;;;;;;5035772;28;20228;-82
2023/07/19 12:22:33;;;;;;;1.27;0.80;;;28.40;80.30;;;;;;5036162;28;20210;-83
2023/07/19 12:25:00;;;;;;;1.10;1.00;;;28.60;76.70;;;;;;5035204;28;20238;-78
2023/07/19 12:27:28;;;;;;;2.67;0.90;;;28.70;78.40;;;;;;5036089;28;20273;-77
2023/07/19 12:29:55;;;;;;;1.55;1.42;;;28.60;76.50;;;;;;5036207;28;20687;-78
2023/07/19 12:32:22;;;;;;;1.25;1.15;;;28.60;77.70;;;;;;5035846;28;20298;-82
2023/07/19 12:34:49;;;;;;;1.15;0.60;;;28.60;79.50;;;;;;5035753;28;20203;-82
2023/07/19 12:37:16;;;;;;;0.93;0.93;;;28.60;78.50;;;;;;5035445;28;20668;-82
2023/07/19 12:39:43;;;;;;;1.02;0.93;;;28.50;79.40;;;;;;5035663;28;20214;-82
2023/07/19 12:42:11;;;;;;;0.90;0.90;;;28.40;80.60;;;;;;5035723;28;20209;-83
2023/07/19 12:44:41;;;;;;;0.70;0.70;;;28.40;81.90;;;;;;5035362;28;20204;-83
2023/07/19 12:47:08;;;;;;;0.95;0.80;;;28.40;81.60;;;;;;5035640;28;20179;-83
2023/07/19 12:49:35;;;;;;;0.70;0.70;;;28.30;79.50;;;;;;5035250;28;20196;-80